METAR Data
IDs: Format: Raw Decoded Include TAF

Data at: 1355 UTC 22 Apr 2021

KBKV 221320Z 040010KT 10SM CLR 58/43 A3014
KBKV 221153Z 01008KT 10SM CLR 14/06 A3012 RMK AO2 SLP199 T01390056 10178 20122 52021
KBKV 221053Z 03004KT 10SM CLR 13/07 A3011 RMK AO2 SLP193 T01330072
KBKV 220953Z AUTO 01004KT 10SM CLR 14/09 A3008 RMK AO2 SLP184 T01440089
KBKV 220853Z AUTO 35005KT 10SM CLR 16/11 A3006 RMK AO2 SLP178 T01560106 53010
KBKV 220753Z AUTO 35004KT 10SM CLR 17/12 A3004 RMK AO2 SLP171 T01670122
KBKV 220653Z AUTO 35006KT 10SM CLR 18/13 A3003 RMK AO2 SLP167 T01780128
KBKV 220553Z AUTO 00000KT 10SM CLR 15/13 A3003 RMK AO2 SLP168 T01500133 10222 20139 58008
KBKV 220453Z AUTO 00000KT 10SM CLR 14/13 A3005 RMK AO2 SLP174 T01440128 402830139
KBKV 220353Z AUTO 00000KT 10SM CLR 16/13 A3005 RMK AO2 SLP176 T01610133
KBKV 220253Z AUTO 22003KT 10SM CLR 16/13 A3005 RMK AO2 SLP176 T01560128 53015
KBKV 220153Z AUTO 24004KT 10SM CLR 17/13 A3004 RMK AO2 SLP170 T01720133
KBKV 220053Z 21004KT 10SM CLR 18/13 A3002 RMK AO2 SLP164 T01780133
KBKV 212353Z 26006KT 10SM CLR 22/13 A3001 RMK AO2 SLP161 T02220128 10283 20222 51009
KBKV 212253Z 29014KT 10SM CLR 24/09 A3000 RMK AO2 SLP158 T02440094
KBKV 212153Z 30012G19KT 10SM CLR 26/11 A2999 RMK AO2 SLP155 T02610106
KBKV 212053Z 29016KT 10SM CLR 27/12 A2998 RMK AO2 SLP152 T02670117 57008
KBKV 211953Z 29010G19KT 10SM CLR 27/11 A2999 RMK AO2 SLP154 T02720106
KBKV 211853Z 30012KT 10SM CLR 28/11 A3000 RMK AO2 SLP156 T02780106
KBKV 211753Z 29009KT 270V330 10SM CLR 28/11 A3001 RMK AO2 SLP158 T02780111 10278 20200 58010
KBKV 211653Z 34007KT 10SM CLR 27/12 A3003 RMK AO2 SLP167 T02670122
KBKV 211553Z 27009KT 10SM CLR 26/13 A3005 RMK AO2 SLP173 T02610133
KBKV 211453Z 30007KT 10SM BKN060 24/16 A3003 RMK AO2 SLP169 T02440156 53009
KBKV 211353Z 36008KT 10SM CLR 23/18 A3002 RMK AO2 SLP163 T02330178
KBKV 211253Z 34004KT 10SM BKN070 22/19 A3002 RMK AO2 SLP163 T02170189
KBKV 211153Z 34003KT 10SM BKN065 20/18 A3001 RMK AO2 SLP160 60001 70036 T02000183 10200 20172 53011
KBKV 211053Z 32005KT 10SM OVC070 19/18 A2999 RMK AO2 SLP154 T01890183
KBKV 211033Z AUTO 00000KT 3SM BR OVC065 18/17 A2999 RMK AO2 T01830172
KBKV 211030Z AUTO 31003KT 1 3/4SM BR FEW001 OVC065 18/17 A2999 RMK AO2 T01780167
KBKV 211016Z AUTO 00000KT 1/2SM FG SCT001 OVC065 18/17 A2999 RMK AO2 T01780167
KBKV 210953Z AUTO 00000KT 1/4SM FG VV001 18/17 A2998 RMK AO2 SLP151 T01780172
KBKV 210909Z AUTO 00000KT 1/4SM FG VV002 18/18 A2998 RMK AO2 T01830178
KBKV 210901Z AUTO 00000KT 1/4SM FG SCT003 SCT100 19/18 A2997 RMK AO2 T01890178
KBKV 210853Z AUTO 00000KT 1/2SM FG VV003 19/18 A2998 RMK AO2 SLP149 60001 T01890178 53006
KBKV 210849Z AUTO 00000KT 3/4SM BR VV004 19/18 A2997 RMK AO2
KBKV 210840Z AUTO 17003KT 1SM BR VV002 19/18 A2997 RMK AO2 T01890178
KBKV 210833Z AUTO 18003KT 1 3/4SM BR SCT002 19/18 A2997 RMK AO2 T01890178
KBKV 210824Z AUTO 17004KT 1/2SM FG VV002 19/18 A2997 RMK AO2 T01890178
KBKV 210753Z AUTO 00000KT 1/4SM FG BKN004 OVC016 18/18 A2996 RMK AO2 SLP143 T01830178
KBKV 210741Z AUTO 00000KT 1/4SM FG BKN004 OVC015 19/18 A2996 RMK AO2 T01890183
KBKV 210732Z AUTO 00000KT 1/2SM FG BKN005 BKN100 19/18 A2996 RMK AO2 T01890183
KBKV 210725Z AUTO 00000KT 1/2SM FG BKN006 BKN019 OVC100 19/18 A2996 RMK AO2 T01890183
KBKV 210719Z AUTO 00000KT 1/4SM FG SCT006 BKN019 OVC100 19/18 A2996 RMK AO2 T01940183
KBKV 210711Z AUTO 00000KT 3/4SM BR FEW006 FEW020 BKN100 19/18 A2996 RMK AO2 T01940183
KBKV 210706Z AUTO 00000KT 1SM BR FEW014 SCT020 BKN100 20/19 A2996 RMK AO2 T02000189
KBKV 210658Z AUTO 00000KT 1 3/4SM BR FEW015 SCT020 BKN100 20/19 A2996 RMK AO2 T02000189
KBKV 210653Z AUTO 00000KT 3SM BR FEW015 SCT022 BKN100 19/19 A2996 RMK AO2 RAB05E16 SLP143 P0001 T01940189
KBKV 210553Z AUTO 00000KT 8SM FEW022 BKN100 20/19 A2997 RMK AO2 RAB22E31 SLP148 P0000 60000 T02000189 10211 20200 53002
KBKV 210453Z AUTO 12003KT 7SM SCT019 OVC110 20/19 A2996 RMK AO2 SLP145 T02000189 402220167
KBKV 210353Z AUTO 15004KT 8SM FEW120 20/19 A2997 RMK AO2 SLP147 T02000189
KBKV 210253Z AUTO 14005KT 10SM SCT022 BKN100 21/19 A2997 RMK AO2 SLP146 T02060189 51009